createdAt,value
2022-09-07T00:03:32.043Z,8.70
2022-09-07T00:08:37.369Z,8.60
2022-09-07T00:13:44.419Z,8.60
2022-09-07T00:24:20.652Z,8.50
2022-09-07T00:29:25.952Z,8.50
2022-09-07T00:34:31.104Z,8.50
2022-09-07T00:39:37.615Z,8.40
2022-09-07T00:45:05.497Z,8.40
2022-09-07T00:50:19.455Z,8.30
2022-09-07T00:55:25.247Z,8.20
2022-09-07T01:00:31.431Z,8.10
2022-09-07T01:05:39.651Z,8.10
2022-09-07T01:10:46.509Z,8.10
2022-09-07T01:15:54.921Z,8.00
2022-09-07T01:21:24.244Z,8.00
2022-09-07T01:26:35.829Z,8.00
2022-09-07T01:31:58.956Z,8.00
2022-09-07T01:37:29.584Z,7.90
2022-09-07T01:42:37.967Z,7.90
2022-09-07T01:47:52.365Z,7.90
2022-09-07T01:53:01.369Z,7.80
2022-09-07T01:58:24.681Z,7.70
2022-09-07T02:03:35.715Z,7.70
2022-09-07T02:08:58.670Z,7.70
2022-09-07T02:14:15.653Z,7.70
2022-09-07T02:19:25.156Z,7.70
2022-09-07T02:24:34.468Z,7.70
2022-09-07T02:29:40.456Z,7.60
2022-09-07T02:34:46.722Z,7.50
2022-09-07T02:39:52.723Z,7.50
2022-09-07T02:44:58.372Z,7.50
2022-09-07T02:50:30.204Z,7.40
2022-09-07T02:55:57.798Z,7.50
2022-09-07T03:01:30.328Z,7.40
2022-09-07T03:06:38.585Z,7.40
2022-09-07T03:11:43.994Z,7.40
2022-09-07T03:16:54.721Z,7.40
2022-09-07T03:22:00.007Z,7.40
2022-09-07T03:27:05.283Z,7.40
2022-09-07T03:32:10.822Z,7.40
2022-09-07T03:37:16.591Z,7.30
2022-09-07T03:42:22.765Z,7.30
2022-09-07T03:47:27.870Z,7.30
2022-09-07T03:52:33.125Z,7.30
2022-09-07T03:57:39.261Z,7.30
2022-09-07T04:02:44.505Z,7.20
2022-09-07T04:07:50.332Z,7.10
2022-09-07T04:12:55.459Z,7.10
2022-09-07T04:18:02.824Z,7.10
2022-09-07T04:23:08.111Z,7.10
2022-09-07T04:28:14.439Z,7.10
2022-09-07T04:33:24.178Z,7.00
2022-09-07T04:38:30.665Z,7.10
2022-09-07T04:43:36.632Z,7.20
2022-09-07T04:48:42.145Z,7.10
2022-09-07T04:53:52.015Z,7.10
2022-09-07T04:58:57.805Z,7.20
2022-09-07T05:04:05.665Z,7.20
2022-09-07T05:09:14.690Z,7.30
2022-09-07T05:14:25.633Z,7.30
2022-09-07T05:19:34.820Z,7.40
2022-09-07T05:24:46.069Z,7.50
2022-09-07T05:35:07.066Z,7.80
2022-09-07T05:40:19.389Z,8.00
2022-09-07T05:45:27.731Z,8.20
2022-09-07T05:50:33.707Z,8.40
2022-09-07T05:55:41.548Z,8.70
2022-09-07T06:00:47.626Z,9.00
2022-09-07T06:06:13.786Z,9.30
2022-09-07T06:11:24.076Z,9.70
2022-09-07T06:16:31.021Z,10.10
2022-09-07T06:21:40.227Z,10.40
2022-09-07T06:26:46.136Z,10.80
2022-09-07T06:37:04.723Z,11.50
2022-09-07T06:42:12.687Z,12.00
2022-09-07T06:47:19.570Z,12.50
2022-09-07T06:57:35.858Z,13.30
2022-09-07T07:02:41.200Z,13.90
2022-09-07T07:07:47.670Z,13.90
2022-09-07T07:12:55.000Z,13.90
2022-09-07T07:18:09.639Z,14.40
2022-09-07T07:23:08.036Z,15.10
2022-09-07T07:33:21.365Z,15.50
2022-09-07T07:43:35.117Z,15.50
2022-09-07T07:48:42.171Z,16.30
2022-09-07T07:53:47.647Z,16.30
2022-09-07T07:58:53.987Z,16.70
2022-09-07T08:03:59.694Z,17.00
2022-09-07T08:09:05.076Z,17.20
2022-09-07T08:14:10.471Z,17.80
2022-09-07T08:19:16.215Z,18.20
2022-09-07T08:24:21.488Z,18.60
2022-09-07T08:29:27.237Z,18.90
2022-09-07T08:34:39.288Z,19.20
2022-09-07T08:39:44.573Z,19.30
2022-09-07T08:44:54.203Z,20.00
2022-09-07T08:50:11.437Z,19.90
2022-09-07T08:55:15.867Z,20.20
2022-09-07T09:00:22.803Z,20.50
2022-09-07T09:05:54.801Z,20.40
2022-09-07T09:11:18.710Z,20.70
2022-09-07T09:16:27.175Z,20.40
2022-09-07T09:21:38.024Z,20.60
2022-09-07T09:31:58.173Z,21.00
2022-09-07T09:37:03.446Z,21.60
2022-09-07T09:42:21.881Z,21.10
2022-09-07T09:47:38.976Z,21.40
2022-09-07T09:52:51.781Z,21.40
2022-09-07T10:08:37.640Z,22.40
2022-09-07T10:13:51.647Z,21.80
2022-09-07T10:19:04.102Z,21.60
2022-09-07T10:24:16.012Z,22.00
2022-09-07T10:29:36.000Z,22.50
2022-09-07T10:35:00.319Z,22.40
2022-09-07T10:40:26.826Z,22.80
2022-09-07T10:45:38.399Z,22.40
2022-09-07T10:50:53.275Z,22.00
2022-09-07T10:56:01.598Z,22.20
2022-09-07T11:01:28.582Z,22.30
2022-09-07T11:07:19.100Z,22.50
2022-09-07T11:12:26.042Z,21.70
2022-09-07T11:17:33.239Z,22.00
2022-09-07T11:23:03.932Z,22.70
2022-09-07T11:34:48.068Z,22.50
2022-09-07T11:39:57.694Z,22.40
2022-09-07T11:45:09.995Z,21.80
2022-09-07T11:50:23.050Z,21.60
2022-09-07T11:55:34.870Z,22.00
2022-09-07T12:01:03.141Z,22.20
2022-09-07T12:06:24.202Z,22.10
2022-09-07T12:11:34.932Z,22.40
2022-09-07T12:16:45.879Z,22.60
2022-09-07T12:21:59.886Z,22.60
2022-09-07T12:27:27.871Z,22.00
2022-09-07T12:32:55.842Z,21.50
2022-09-07T12:38:37.841Z,20.70
2022-09-07T12:43:49.494Z,20.80
2022-09-07T12:49:05.103Z,20.80
2022-09-07T12:54:33.721Z,20.80
2022-09-07T13:00:04.585Z,21.20
2022-09-07T13:05:33.815Z,21.80
2022-09-07T13:10:52.055Z,21.90
2022-09-07T13:16:08.999Z,21.80
2022-09-07T13:21:24.626Z,22.00
2022-09-07T13:26:53.881Z,22.30
2022-09-07T13:32:08.189Z,22.20
2022-09-07T13:37:22.575Z,22.00
2022-09-07T13:42:33.408Z,22.40
2022-09-07T13:47:47.557Z,22.50
2022-09-07T13:53:22.223Z,22.20
2022-09-07T13:58:37.271Z,22.00
2022-09-07T14:03:54.368Z,22.00
2022-09-07T14:09:09.266Z,22.00
2022-09-07T14:14:27.789Z,21.70
2022-09-07T14:19:49.301Z,21.40
2022-09-07T14:25:01.731Z,21.20
2022-09-07T14:30:22.053Z,21.10
2022-09-07T14:35:38.303Z,21.30
2022-09-07T14:40:51.506Z,21.10
2022-09-07T14:46:03.713Z,21.00
2022-09-07T14:51:30.187Z,20.80
2022-09-07T14:56:28.547Z,20.80
2022-09-07T15:01:41.441Z,20.70
2022-09-07T15:07:07.609Z,20.70
2022-09-07T15:12:11.545Z,20.60
2022-09-07T15:17:44.534Z,20.60
2022-09-07T15:22:36.433Z,20.70
2022-09-07T15:27:41.666Z,20.80
2022-09-07T15:32:46.911Z,20.70
2022-09-07T15:38:59.440Z,20.60
2022-09-07T15:43:00.557Z,20.50
2022-09-07T15:48:06.105Z,20.50
2022-09-07T15:58:18.576Z,20.40
2022-09-07T16:03:23.886Z,20.20
2022-09-07T16:08:32.739Z,20.00
2022-09-07T16:13:36.406Z,19.80
2022-09-07T16:18:41.882Z,19.80
2022-09-07T16:23:50.733Z,19.60
2022-09-07T16:28:56.140Z,19.60
2022-09-07T16:34:04.008Z,19.50
2022-09-07T16:39:11.435Z,19.40
2022-09-07T16:44:17.026Z,19.20
2022-09-07T16:49:23.016Z,19.00
2022-09-07T16:54:28.298Z,18.70
2022-09-07T16:59:33.656Z,18.50
2022-09-07T17:04:38.907Z,18.30
2022-09-07T17:09:44.175Z,18.10
2022-09-07T17:14:49.580Z,17.90
2022-09-07T17:19:56.579Z,17.60
2022-09-07T17:25:01.806Z,17.40
2022-09-07T17:30:07.395Z,17.10
2022-09-07T17:35:21.499Z,16.90
2022-09-07T17:40:27.070Z,16.70
2022-09-07T17:45:33.656Z,16.40
2022-09-07T17:50:43.273Z,16.20
2022-09-07T17:55:48.448Z,16.10
2022-09-07T18:00:54.599Z,15.90
2022-09-07T18:06:00.607Z,15.80
2022-09-07T18:16:22.392Z,15.60
2022-09-07T18:21:33.559Z,15.50
2022-09-07T18:26:39.715Z,15.40
2022-09-07T18:31:45.734Z,15.40
2022-09-07T18:36:51.357Z,15.30
2022-09-07T18:41:56.685Z,15.20
2022-09-07T18:47:03.530Z,15.20
2022-09-07T18:57:15.710Z,14.90
2022-09-07T19:02:21.273Z,14.70
2022-09-07T19:07:29.889Z,14.50
2022-09-07T19:12:33.365Z,14.40
2022-09-07T19:17:38.970Z,14.30
2022-09-07T19:22:44.189Z,14.30
2022-09-07T19:27:49.468Z,14.30
2022-09-07T19:32:54.770Z,14.30
2022-09-07T19:38:00.138Z,14.20
2022-09-07T19:43:05.396Z,14.20
2022-09-07T19:48:10.670Z,14.20
2022-09-07T19:53:15.924Z,14.10
2022-09-07T19:58:21.134Z,13.90
2022-09-07T20:03:26.855Z,13.80
2022-09-07T20:08:32.179Z,13.60
2022-09-07T20:13:38.230Z,13.40
2022-09-07T20:18:44.540Z,13.30
2022-09-07T20:23:50.072Z,13.20
2022-09-07T20:29:11.049Z,13.00
2022-09-07T20:34:03.170Z,12.90
2022-09-07T20:39:08.509Z,12.70
2022-09-07T20:44:14.613Z,12.60
2022-09-07T20:49:19.743Z,12.60
2022-09-07T20:54:35.186Z,12.40
2022-09-07T20:59:40.362Z,12.30
2022-09-07T21:04:45.524Z,12.30
2022-09-07T21:09:51.473Z,12.30
2022-09-07T21:14:56.679Z,12.30
2022-09-07T21:20:01.797Z,12.20
2022-09-07T21:25:07.493Z,12.10
2022-09-07T21:30:13.331Z,12.00
2022-09-07T21:35:19.358Z,11.90
2022-09-07T21:40:25.292Z,11.80
2022-09-07T21:45:32.176Z,11.70
2022-09-07T21:50:37.442Z,11.70
2022-09-07T21:55:42.579Z,11.60
2022-09-07T22:00:47.737Z,11.60
2022-09-07T22:05:53.555Z,11.50
2022-09-07T22:11:07.645Z,11.60
2022-09-07T22:16:13.892Z,11.70
2022-09-07T22:21:22.039Z,11.70
2022-09-07T22:26:29.750Z,11.80
2022-09-07T22:31:36.793Z,11.80
2022-09-07T22:36:44.413Z,11.70
2022-09-07T22:41:49.722Z,11.60
2022-09-07T22:46:54.868Z,11.50
2022-09-07T22:52:00.117Z,11.50
2022-09-07T22:57:05.526Z,11.40
2022-09-07T23:02:10.885Z,11.30
2022-09-07T23:07:16.253Z,11.20
2022-09-07T23:12:21.545Z,11.20
2022-09-07T23:17:26.605Z,11.20
2022-09-07T23:22:32.142Z,11.30
2022-09-07T23:27:37.384Z,11.40
2022-09-07T23:32:42.648Z,11.60
2022-09-07T23:37:47.780Z,11.80
2022-09-07T23:42:53.663Z,11.90
2022-09-07T23:47:58.970Z,12.00
2022-09-07T23:53:04.296Z,12.10
2022-09-07T23:58:10.858Z,12.20
